sensor_id;sensor_type;location;lat;lon;timestamp;pressure;altitude;pressure_sealevel;temperature;humidity
31681;BME280;18281;51.364;9.566;2023-12-04T00:00:04;100281.25;;;-3.59;88.50
31681;BME280;18281;51.364;9.566;2023-12-04T00:02:30;100280.38;;;-3.58;88.41
31681;BME280;18281;51.364;9.566;2023-12-04T00:04:55;100276.91;;;-3.63;87.81
31681;BME280;18281;51.364;9.566;2023-12-04T00:07:20;100270.09;;;-3.60;87.94
31681;BME280;18281;51.364;9.566;2023-12-04T00:09:45;100258.16;;;-3.58;87.76
31681;BME280;18281;51.364;9.566;2023-12-04T00:12:11;100264.13;;;-3.57;87.54
31681;BME280;18281;51.364;9.566;2023-12-04T00:14:36;100248.72;;;-3.56;87.59
31681;BME280;18281;51.364;9.566;2023-12-04T00:17:01;100250.44;;;-3.58;87.31
31681;BME280;18281;51.364;9.566;2023-12-04T00:19:26;100248.72;;;-3.57;87.43
31681;BME280;18281;51.364;9.566;2023-12-04T00:21:51;100241.03;;;-3.60;87.46
31681;BME280;18281;51.364;9.566;2023-12-04T00:24:17;100239.31;;;-3.58;87.21
31681;BME280;18281;51.364;9.566;2023-12-04T00:26:42;100230.72;;;-3.63;87.24
31681;BME280;18281;51.364;9.566;2023-12-04T00:29:07;100228.19;;;-3.62;87.47
31681;BME280;18281;51.364;9.566;2023-12-04T00:31:32;100225.63;;;-3.59;87.69
31681;BME280;18281;51.364;9.566;2023-12-04T00:33:58;100218.78;;;-3.57;87.86
31681;BME280;18281;51.364;9.566;2023-12-04T00:36:23;100212.00;;;-3.45;87.33
31681;BME280;18281;51.364;9.566;2023-12-04T00:38:48;100202.53;;;-3.59;87.08
31681;BME280;18281;51.364;9.566;2023-12-04T00:41:13;100196.50;;;-3.62;87.27
31681;BME280;18281;51.364;9.566;2023-12-04T00:43:39;100199.97;;;-3.56;86.88
31681;BME280;18281;51.364;9.566;2023-12-04T00:46:04;100192.31;;;-3.53;86.84
31681;BME280;18281;51.364;9.566;2023-12-04T00:48:29;100179.47;;;-3.53;86.76
31681;BME280;18281;51.364;9.566;2023-12-04T00:50:54;100175.19;;;-3.51;86.49
31681;BME280;18281;51.364;9.566;2023-12-04T00:53:20;100166.66;;;-3.51;86.56
31681;BME280;18281;51.364;9.566;2023-12-04T00:55:45;100156.38;;;-3.50;86.17
31681;BME280;18281;51.364;9.566;2023-12-04T00:58:11;100162.34;;;-3.51;86.47
31681;BME280;18281;51.364;9.566;2023-12-04T01:00:36;100158.94;;;-3.50;85.96
31681;BME280;18281;51.364;9.566;2023-12-04T01:03:01;100155.53;;;-3.48;86.30
31681;BME280;18281;51.364;9.566;2023-12-04T01:05:26;100149.53;;;-3.55;86.02
31681;BME280;18281;51.364;9.566;2023-12-04T01:07:52;100155.50;;;-3.56;85.91
31681;BME280;18281;51.364;9.566;2023-12-04T01:10:17;100150.41;;;-3.42;86.22
31681;BME280;18281;51.364;9.566;2023-12-04T01:12:42;100156.38;;;-3.50;86.23
31681;BME280;18281;51.364;9.566;2023-12-04T01:15:08;100154.66;;;-3.52;86.40
31681;BME280;18281;51.364;9.566;2023-12-04T01:17:34;100160.69;;;-3.41;86.88
31681;BME280;18281;51.364;9.566;2023-12-04T01:19:59;100158.94;;;-3.51;86.58
31681;BME280;18281;51.364;9.566;2023-12-04T01:22:24;100155.53;;;-3.47;86.23
31681;BME280;18281;51.364;9.566;2023-12-04T01:24:50;100159.78;;;-3.51;86.69
31681;BME280;18281;51.364;9.566;2023-12-04T01:27:15;100157.22;;;-3.49;87.02
31681;BME280;18281;51.364;9.566;2023-12-04T01:29:40;100158.06;;;-3.55;86.55
31681;BME280;18281;51.364;9.566;2023-12-04T01:32:05;100158.91;;;-3.57;86.61
31681;BME280;18281;51.364;9.566;2023-12-04T01:34:31;100156.44;;;-3.40;86.83
31681;BME280;18281;51.364;9.566;2023-12-04T01:36:56;100151.28;;;-3.40;86.49
31681;BME280;18281;51.364;9.566;2023-12-04T01:39:21;100146.13;;;-3.48;86.65
31681;BME280;18281;51.364;9.566;2023-12-04T01:41:46;100140.97;;;-3.46;86.51
31681;BME280;18281;51.364;9.566;2023-12-04T01:44:11;100141.88;;;-3.46;86.85
31681;BME280;18281;51.364;9.566;2023-12-04T01:46:37;100145.28;;;-3.48;86.40
31681;BME280;18281;51.364;9.566;2023-12-04T01:49:02;100140.97;;;-3.50;86.37
31681;BME280;18281;51.364;9.566;2023-12-04T01:51:28;100138.41;;;-3.53;86.48
31681;BME280;18281;51.364;9.566;2023-12-04T01:53:54;100135.84;;;-3.45;86.72
31681;BME280;18281;51.364;9.566;2023-12-04T01:56:20;100127.31;;;-3.45;86.91
31681;BME280;18281;51.364;9.566;2023-12-04T01:58:46;100129.03;;;-3.41;86.94
31681;BME280;18281;51.364;9.566;2023-12-04T02:01:11;100127.31;;;-3.48;86.46
31681;BME280;18281;51.364;9.566;2023-12-04T02:03:36;100125.59;;;-3.43;86.54
31681;BME280;18281;51.364;9.566;2023-12-04T02:06:02;100124.75;;;-3.47;86.81
31681;BME280;18281;51.364;9.566;2023-12-04T02:08:28;100117.03;;;-3.47;86.83
31681;BME280;18281;51.364;9.566;2023-12-04T02:10:54;100118.75;;;-3.44;87.34
31681;BME280;18281;51.364;9.566;2023-12-04T02:13:19;100110.19;;;-3.45;87.40
31681;BME280;18281;51.364;9.566;2023-12-04T02:15:44;100111.06;;;-3.43;86.72
31681;BME280;18281;51.364;9.566;2023-12-04T02:18:12;100112.75;;;-3.48;87.31
31681;BME280;18281;51.364;9.566;2023-12-04T02:20:37;100108.47;;;-3.47;87.35
31681;BME280;18281;51.364;9.566;2023-12-04T02:23:03;100107.63;;;-3.53;87.63
31681;BME280;18281;51.364;9.566;2023-12-04T02:25:28;100098.22;;;-3.44;87.21
31681;BME280;18281;51.364;9.566;2023-12-04T02:27:54;100096.50;;;-3.45;87.40
31681;BME280;18281;51.364;9.566;2023-12-04T02:30:21;100094.78;;;-3.46;88.00
31681;BME280;18281;51.364;9.566;2023-12-04T02:32:47;100099.06;;;-3.45;87.96
31681;BME280;18281;51.364;9.566;2023-12-04T02:35:19;100093.09;;;-3.44;87.62
31681;BME280;18281;51.364;9.566;2023-12-04T02:37:45;100093.94;;;-3.47;87.98
31681;BME280;18281;51.364;9.566;2023-12-04T02:40:12;100093.94;;;-3.47;87.85
31681;BME280;18281;51.364;9.566;2023-12-04T02:42:37;100091.38;;;-3.44;87.48
31681;BME280;18281;51.364;9.566;2023-12-04T02:45:02;100090.53;;;-3.43;87.67
31681;BME280;18281;51.364;9.566;2023-12-04T02:47:28;100087.97;;;-3.41;87.88
31681;BME280;18281;51.364;9.566;2023-12-04T02:49:53;100091.38;;;-3.42;87.74
31681;BME280;18281;51.364;9.566;2023-12-04T02:52:18;100087.09;;;-3.48;87.60
31681;BME280;18281;51.364;9.566;2023-12-04T02:54:43;100084.50;;;-3.50;87.97
31681;BME280;18281;51.364;9.566;2023-12-04T02:57:09;100088.81;;;-3.45;88.05
31681;BME280;18281;51.364;9.566;2023-12-04T02:59:34;100078.53;;;-3.45;87.67
31681;BME280;18281;51.364;9.566;2023-12-04T03:01:59;100075.13;;;-3.44;87.69
31681;BME280;18281;51.364;9.566;2023-12-04T03:04:24;100066.59;;;-3.39;87.76
31681;BME280;18281;51.364;9.566;2023-12-04T03:06:49;100049.44;;;-3.49;87.55
31681;BME280;18281;51.364;9.566;2023-12-04T03:09:15;100046.88;;;-3.43;87.99
31681;BME280;18281;51.364;9.566;2023-12-04T03:11:40;100046.03;;;-3.42;87.70
31681;BME280;18281;51.364;9.566;2023-12-04T03:14:06;100047.75;;;-3.39;87.34
31681;BME280;18281;51.364;9.566;2023-12-04T03:16:31;100042.59;;;-3.48;87.13
31681;BME280;18281;51.364;9.566;2023-12-04T03:18:56;100048.59;;;-3.43;87.33
31681;BME280;18281;51.364;9.566;2023-12-04T03:21:21;100051.16;;;-3.45;87.24
31681;BME280;18281;51.364;9.566;2023-12-04T03:23:47;100045.19;;;-3.48;87.24
31681;BME280;18281;51.364;9.566;2023-12-04T03:26:12;100048.63;;;-3.40;86.80
31681;BME280;18281;51.364;9.566;2023-12-04T03:28:38;100046.00;;;-3.46;87.08
31681;BME280;18281;51.364;9.566;2023-12-04T03:31:03;100046.88;;;-3.44;87.23
31681;BME280;18281;51.364;9.566;2023-12-04T03:33:29;100037.47;;;-3.44;87.07
31681;BME280;18281;51.364;9.566;2023-12-04T03:35:54;100030.63;;;-3.40;86.91
31681;BME280;18281;51.364;9.566;2023-12-04T03:38:19;100017.78;;;-3.45;86.97
31681;BME280;18281;51.364;9.566;2023-12-04T03:40:44;100022.06;;;-3.47;86.47
31681;BME280;18281;51.364;9.566;2023-12-04T03:43:10;100017.78;;;-3.46;86.57
31681;BME280;18281;51.364;9.566;2023-12-04T03:45:35;100015.22;;;-3.43;87.00
31681;BME280;18281;51.364;9.566;2023-12-04T03:48:00;100012.69;;;-3.42;86.75
31681;BME280;18281;51.364;9.566;2023-12-04T03:50:25;100009.25;;;-3.45;86.73
31681;BME280;18281;51.364;9.566;2023-12-04T03:52:50;100015.22;;;-3.46;86.35
31681;BME280;18281;51.364;9.566;2023-12-04T03:55:16;100010.09;;;-3.51;86.37
31681;BME280;18281;51.364;9.566;2023-12-04T03:57:41;100016.09;;;-3.44;86.39
31681;BME280;18281;51.364;9.566;2023-12-04T04:00:08;100002.41;;;-3.40;86.40
31681;BME280;18281;51.364;9.566;2023-12-04T04:02:34;100006.66;;;-3.48;85.73
31681;BME280;18281;51.364;9.566;2023-12-04T04:04:59;100005.81;;;-3.44;85.67
31681;BME280;18281;51.364;9.566;2023-12-04T04:07:24;99999.81;;;-3.46;85.78
31681;BME280;18281;51.364;9.566;2023-12-04T04:09:50;99992.13;;;-3.48;86.00
31681;BME280;18281;51.364;9.566;2023-12-04T04:12:15;99993.81;;;-3.42;85.85
31681;BME280;18281;51.364;9.566;2023-12-04T04:14:40;99989.56;;;-3.53;86.21
31681;BME280;18281;51.364;9.566;2023-12-04T04:17:05;99985.25;;;-3.49;85.75
31681;BME280;18281;51.364;9.566;2023-12-04T04:19:30;99980.97;;;-3.50;86.09
31681;BME280;18281;51.364;9.566;2023-12-04T04:21:56;99986.13;;;-3.53;85.81
31681;BME280;18281;51.364;9.566;2023-12-04T04:24:21;99995.53;;;-3.54;85.94
31681;BME280;18281;51.364;9.566;2023-12-04T04:26:46;99987.84;;;-3.46;86.09
31681;BME280;18281;51.364;9.566;2023-12-04T04:29:12;99984.44;;;-3.53;85.86
31681;BME280;18281;51.364;9.566;2023-12-04T04:31:37;99981.84;;;-3.50;85.73
31681;BME280;18281;51.364;9.566;2023-12-04T04:34:02;99984.38;;;-3.54;85.68
31681;BME280;18281;51.364;9.566;2023-12-04T04:36:28;99978.41;;;-3.52;85.80
31681;BME280;18281;51.364;9.566;2023-12-04T04:38:53;99973.28;;;-3.55;85.48
31681;BME280;18281;51.364;9.566;2023-12-04T04:41:18;99976.69;;;-3.56;85.88
31681;BME280;18281;51.364;9.566;2023-12-04T04:43:43;99974.16;;;-3.53;85.61
31681;BME280;18281;51.364;9.566;2023-12-04T04:46:09;99976.69;;;-3.59;85.81
31681;BME280;18281;51.364;9.566;2023-12-04T04:48:34;99983.53;;;-3.52;85.93
31681;BME280;18281;51.364;9.566;2023-12-04T04:51:00;99976.69;;;-3.56;85.39
31681;BME280;18281;51.364;9.566;2023-12-04T04:53:25;99967.31;;;-3.55;85.33
31681;BME280;18281;51.364;9.566;2023-12-04T04:55:50;99959.59;;;-3.52;85.09
31681;BME280;18281;51.364;9.566;2023-12-04T04:58:16;99962.19;;;-3.55;85.20
31681;BME280;18281;51.364;9.566;2023-12-04T05:00:41;99958.72;;;-3.54;85.18
31681;BME280;18281;51.364;9.566;2023-12-04T05:03:07;99959.59;;;-3.60;84.89
31681;BME280;18281;51.364;9.566;2023-12-04T05:05:32;99954.44;;;-3.60;85.52
31681;BME280;18281;51.364;9.566;2023-12-04T05:07:57;99953.59;;;-3.59;85.23
31681;BME280;18281;51.364;9.566;2023-12-04T05:10:22;99947.63;;;-3.58;85.35
31681;BME280;18281;51.364;9.566;2023-12-04T05:12:48;99945.91;;;-3.54;85.17
31681;BME280;18281;51.364;9.566;2023-12-04T05:15:13;99947.59;;;-3.61;84.95
31681;BME280;18281;51.364;9.566;2023-12-04T05:17:38;99951.06;;;-3.53;85.07
31681;BME280;18281;51.364;9.566;2023-12-04T05:20:03;99940.78;;;-3.59;84.36
31681;BME280;18281;51.364;9.566;2023-12-04T05:22:29;99945.06;;;-3.55;84.18
31681;BME280;18281;51.364;9.566;2023-12-04T05:24:54;99942.50;;;-3.55;84.59
31681;BME280;18281;51.364;9.566;2023-12-04T05:27:19;99941.63;;;-3.58;84.58
31681;BME280;18281;51.364;9.566;2023-12-04T05:29:44;99944.22;;;-3.54;85.27
31681;BME280;18281;51.364;9.566;2023-12-04T05:32:10;99940.78;;;-3.59;84.01
31681;BME280;18281;51.364;9.566;2023-12-04T05:34:35;99935.66;;;-3.59;84.61
31681;BME280;18281;51.364;9.566;2023-12-04T05:37:00;99939.06;;;-3.63;83.95
31681;BME280;18281;51.364;9.566;2023-12-04T05:39:25;99930.50;;;-3.60;84.74
31681;BME280;18281;51.364;9.566;2023-12-04T05:41:51;99931.97;;;-2.06;100.00
31681;BME280;18281;51.364;9.566;2023-12-04T05:44:16;99933.56;;;-0.75;100.00
31681;BME280;18281;51.364;9.566;2023-12-04T05:46:41;99932.03;;;-0.14;100.00
31681;BME280;18281;51.364;9.566;2023-12-04T05:49:06;99922.38;;;-0.72;100.00
31681;BME280;18281;51.364;9.566;2023-12-04T05:51:32;99932.25;;;-1.18;100.00
31681;BME280;18281;51.364;9.566;2023-12-04T05:53:57;99923.84;;;-1.43;100.00
31681;BME280;18281;51.364;9.566;2023-12-04T05:56:23;99921.44;;;-1.66;100.00
31681;BME280;18281;51.364;9.566;2023-12-04T05:58:48;99919.84;;;-1.86;99.52
31681;BME280;18281;51.364;9.566;2023-12-04T06:01:14;99930.22;;;-2.04;98.13
31681;BME280;18281;51.364;9.566;2023-12-04T06:03:40;99936.28;;;-2.18;98.37
31681;BME280;18281;51.364;9.566;2023-12-04T06:06:05;99928.66;;;-2.36;98.31
31681;BME280;18281;51.364;9.566;2023-12-04T06:08:30;99923.53;;;-2.49;97.87
31681;BME280;18281;51.364;9.566;2023-12-04T06:10:56;99920.13;;;-2.54;97.20
31681;BME280;18281;51.364;9.566;2023-12-04T06:13:21;99915.03;;;-2.61;96.18
31681;BME280;18281;51.364;9.566;2023-12-04T06:15:46;99916.75;;;-2.65;95.57
31681;BME280;18281;51.364;9.566;2023-12-04T06:18:11;99912.50;;;-2.72;94.36
31681;BME280;18281;51.364;9.566;2023-12-04T06:20:37;99912.50;;;-2.77;94.30
31681;BME280;18281;51.364;9.566;2023-12-04T06:23:02;99914.22;;;-2.82;93.33
31681;BME280;18281;51.364;9.566;2023-12-04T06:25:27;99907.38;;;-2.89;93.03
31681;BME280;18281;51.364;9.566;2023-12-04T06:27:53;99914.22;;;-2.93;92.67
31681;BME280;18281;51.364;9.566;2023-12-04T06:30:18;99914.25;;;-2.94;91.74
31681;BME280;18281;51.364;9.566;2023-12-04T06:32:44;99906.53;;;-2.93;91.80
31681;BME280;18281;51.364;9.566;2023-12-04T06:35:09;99908.25;;;-3.03;90.83
31681;BME280;18281;51.364;9.566;2023-12-04T06:37:35;99909.09;;;-3.02;91.25
31681;BME280;18281;51.364;9.566;2023-12-04T06:40:02;99904.84;;;-3.06;89.75
31681;BME280;18281;51.364;9.566;2023-12-04T06:42:27;99898.00;;;-3.12;89.76
31681;BME280;18281;51.364;9.566;2023-12-04T06:44:53;99900.56;;;-3.13;89.82
31681;BME280;18281;51.364;9.566;2023-12-04T06:47:19;99903.13;;;-3.21;88.17
31681;BME280;18281;51.364;9.566;2023-12-04T06:49:47;99897.00;;;-2.54;95.40
31681;BME280;18281;51.364;9.566;2023-12-04T06:52:12;99896.13;;;-2.51;96.49
31681;BME280;18281;51.364;9.566;2023-12-04T06:54:37;99896.16;;;-2.60;95.56
31681;BME280;18281;51.364;9.566;2023-12-04T06:57:02;99899.63;;;-2.68;95.18
31681;BME280;18281;51.364;9.566;2023-12-04T06:59:28;99889.38;;;-2.78;94.23
31681;BME280;18281;51.364;9.566;2023-12-04T07:01:53;99890.66;;;-1.83;100.00
31681;BME280;18281;51.364;9.566;2023-12-04T07:04:18;99889.44;;;-0.50;100.00
31681;BME280;18281;51.364;9.566;2023-12-04T07:06:46;99893.34;;;-0.90;100.00
31681;BME280;18281;51.364;9.566;2023-12-04T07:09:11;99891.94;;;-1.25;100.00
31681;BME280;18281;51.364;9.566;2023-12-04T07:11:36;99887.88;;;-1.52;100.00
31681;BME280;18281;51.364;9.566;2023-12-04T07:14:02;99881.16;;;-1.75;100.00
31681;BME280;18281;51.364;9.566;2023-12-04T07:16:27;99879.59;;;-1.96;100.00
31681;BME280;18281;51.364;9.566;2023-12-04T07:18:53;99874.50;;;-2.07;100.00
31681;BME280;18281;51.364;9.566;2023-12-04T07:21:18;99869.41;;;-2.18;99.56
31681;BME280;18281;51.364;9.566;2023-12-04T07:23:43;99866.03;;;-2.26;99.89
31681;BME280;18281;51.364;9.566;2023-12-04T07:26:09;99878.94;;;-2.37;100.00
31681;BME280;18281;51.364;9.566;2023-12-04T07:28:34;99873.84;;;-2.46;97.59
31681;BME280;18281;51.364;9.566;2023-12-04T07:30:59;99873.88;;;-2.54;97.97
31681;BME280;18281;51.364;9.566;2023-12-04T07:33:26;99877.28;;;-2.56;96.36
31681;BME280;18281;51.364;9.566;2023-12-04T07:35:51;99878.19;;;-2.63;95.46
31681;BME280;18281;51.364;9.566;2023-12-04T07:38:17;99874.78;;;-2.69;95.57
31681;BME280;18281;51.364;9.566;2023-12-04T07:40:42;99877.38;;;-2.73;94.77
31681;BME280;18281;51.364;9.566;2023-12-04T07:43:07;99871.38;;;-2.78;93.52
31681;BME280;18281;51.364;9.566;2023-12-04T07:45:32;99873.09;;;-2.80;93.66
31681;BME280;18281;51.364;9.566;2023-12-04T07:47:59;99863.69;;;-2.86;92.73
31681;BME280;18281;51.364;9.566;2023-12-04T07:50:25;99868.84;;;-2.88;92.62
31681;BME280;18281;51.364;9.566;2023-12-04T07:52:50;99864.59;;;-2.93;92.38
31681;BME280;18281;51.364;9.566;2023-12-04T07:55:15;99869.72;;;-2.93;91.85
31681;BME280;18281;51.364;9.566;2023-12-04T07:57:41;99868.88;;;-2.92;91.00
31681;BME280;18281;51.364;9.566;2023-12-04T08:00:06;99872.28;;;-3.01;90.71
31681;BME280;18281;51.364;9.566;2023-12-04T08:02:31;99871.44;;;-2.99;90.83
31681;BME280;18281;51.364;9.566;2023-12-04T08:04:57;99865.47;;;-2.99;90.29
31681;BME280;18281;51.364;9.566;2023-12-04T08:07:22;99862.00;;;-3.00;90.00
31681;BME280;18281;51.364;9.566;2023-12-04T08:09:47;99857.75;;;-3.05;89.24
31681;BME280;18281;51.364;9.566;2023-12-04T08:12:12;99854.34;;;-3.06;89.02
31681;BME280;18281;51.364;9.566;2023-12-04T08:14:37;99851.75;;;-3.07;88.86
31681;BME280;18281;51.364;9.566;2023-12-04T08:17:03;99854.34;;;-3.06;88.73
31681;BME280;18281;51.364;9.566;2023-12-04T08:19:28;99845.78;;;-3.11;88.22
31681;BME280;18281;51.364;9.566;2023-12-04T08:21:53;99844.06;;;-3.13;87.18
31681;BME280;18281;51.364;9.566;2023-12-04T08:24:18;99847.47;;;-3.11;86.91
31681;BME280;18281;51.364;9.566;2023-12-04T08:26:44;99842.34;;;-3.10;86.99
31681;BME280;18281;51.364;9.566;2023-12-04T08:29:10;99843.19;;;-3.08;87.15
31681;BME280;18281;51.364;9.566;2023-12-04T08:31:36;99844.91;;;-3.05;86.64
31681;BME280;18281;51.364;9.566;2023-12-04T08:34:01;99839.75;;;-3.02;86.73
31681;BME280;18281;51.364;9.566;2023-12-04T08:36:26;99836.34;;;-3.10;86.60
31681;BME280;18281;51.364;9.566;2023-12-04T08:38:51;99844.91;;;-3.05;86.76
31681;BME280;18281;51.364;9.566;2023-12-04T08:41:18;99840.63;;;-3.00;86.26
31681;BME280;18281;51.364;9.566;2023-12-04T08:43:43;99839.78;;;-3.05;86.07
31681;BME280;18281;51.364;9.566;2023-12-04T08:46:12;99838.91;;;-3.03;85.67
31681;BME280;18281;51.364;9.566;2023-12-04T08:48:37;99836.34;;;-3.07;85.52
31681;BME280;18281;51.364;9.566;2023-12-04T08:51:02;99843.19;;;-3.02;85.57
31681;BME280;18281;51.364;9.566;2023-12-04T08:53:27;99842.34;;;-3.04;85.70
31681;BME280;18281;51.364;9.566;2023-12-04T08:55:53;99840.63;;;-3.00;86.15
31681;BME280;18281;51.364;9.566;2023-12-04T08:58:18;99834.63;;;-3.02;85.85
31681;BME280;18281;51.364;9.566;2023-12-04T09:00:43;99840.63;;;-3.02;84.90
31681;BME280;18281;51.364;9.566;2023-12-04T09:03:09;99834.63;;;-3.02;84.70
31681;BME280;18281;51.364;9.566;2023-12-04T09:05:35;99831.19;;;-2.95;85.13
31681;BME280;18281;51.364;9.566;2023-12-04T09:08:01;99833.75;;;-2.98;84.42
31681;BME280;18281;51.364;9.566;2023-12-04T09:10:26;99820.09;;;-3.02;84.53
31681;BME280;18281;51.364;9.566;2023-12-04T09:12:51;99818.34;;;-2.98;84.23
31681;BME280;18281;51.364;9.566;2023-12-04T09:15:16;99822.59;;;-2.89;83.82
31681;BME280;18281;51.364;9.566;2023-12-04T09:17:42;99821.75;;;-2.94;84.26
31681;BME280;18281;51.364;9.566;2023-12-04T09:20:07;99816.59;;;-2.87;84.26
31681;BME280;18281;51.364;9.566;2023-12-04T09:22:32;99816.56;;;-2.76;85.37
31681;BME280;18281;51.364;9.566;2023-12-04T09:24:59;99812.66;;;-0.97;100.00
31681;BME280;18281;51.364;9.566;2023-12-04T09:27:25;99812.84;;;0.17;100.00
31681;BME280;18281;51.364;9.566;2023-12-04T09:29:50;99800.78;;;0.69;100.00
31681;BME280;18281;51.364;9.566;2023-12-04T09:32:15;99798.44;;;1.04;100.00
31681;BME280;18281;51.364;9.566;2023-12-04T09:34:40;99793.63;;;0.84;100.00
31681;BME280;18281;51.364;9.566;2023-12-04T09:37:06;99786.47;;;0.51;100.00
31681;BME280;18281;51.364;9.566;2023-12-04T09:39:32;99786.63;;;0.42;100.00
31681;BME280;18281;51.364;9.566;2023-12-04T09:41:57;99782.06;;;0.57;100.00
31681;BME280;18281;51.364;9.566;2023-12-04T09:44:23;99774.59;;;0.41;98.79
31681;BME280;18281;51.364;9.566;2023-12-04T09:46:49;99765.03;;;0.45;98.81
31681;BME280;18281;51.364;9.566;2023-12-04T09:49:14;99769.25;;;0.50;98.67
31681;BME280;18281;51.364;9.566;2023-12-04T09:51:41;99770.81;;;0.59;98.81
31681;BME280;18281;51.364;9.566;2023-12-04T09:54:06;99762.84;;;0.71;97.74
31681;BME280;18281;51.364;9.566;2023-12-04T09:56:33;99766.09;;;0.83;97.15
31681;BME280;18281;51.364;9.566;2023-12-04T09:58:59;99771.09;;;0.91;96.12
31681;BME280;18281;51.364;9.566;2023-12-04T10:01:25;99765.03;;;0.92;98.45
31681;BME280;18281;51.364;9.566;2023-12-04T10:03:50;99762.38;;;0.96;97.76
31681;BME280;18281;51.364;9.566;2023-12-04T10:06:16;99755.44;;;1.01;96.76
31681;BME280;18281;51.364;9.566;2023-12-04T10:08:44;99750.97;;;1.08;95.39
31681;BME280;18281;51.364;9.566;2023-12-04T10:11:12;99743.25;;;1.05;94.57
31681;BME280;18281;51.364;9.566;2023-12-04T10:13:37;99752.09;;;0.95;94.93
31681;BME280;18281;51.364;9.566;2023-12-04T10:16:03;99740.06;;;0.91;93.73
31681;BME280;18281;51.364;9.566;2023-12-04T10:18:29;99730.56;;;0.93;92.95
31681;BME280;18281;51.364;9.566;2023-12-04T10:20:55;99723.84;;;0.84;93.60
31681;BME280;18281;51.364;9.566;2023-12-04T10:23:21;99715.66;;;0.62;93.71
31681;BME280;18281;51.364;9.566;2023-12-04T10:25:47;99724.44;;;0.53;94.24
31681;BME280;18281;51.364;9.566;2023-12-04T10:28:14;99711.94;;;0.30;92.82
31681;BME280;18281;51.364;9.566;2023-12-04T10:30:40;99706.28;;;0.08;93.00
31681;BME280;18281;51.364;9.566;2023-12-04T10:33:06;99700.69;;;-0.16;91.22
31681;BME280;18281;51.364;9.566;2023-12-04T10:35:32;99696.56;;;-0.28;91.38
31681;BME280;18281;51.364;9.566;2023-12-04T10:37:58;99688.19;;;-0.42;91.26
31681;BME280;18281;51.364;9.566;2023-12-04T10:40:28;99680.56;;;-0.49;91.76
31681;BME280;18281;51.364;9.566;2023-12-04T10:43:09;99673.78;;;-0.56;91.05
31681;BME280;18281;51.364;9.566;2023-12-04T10:45:38;99671.31;;;-0.64;90.56
31681;BME280;18281;51.364;9.566;2023-12-04T10:48:07;99660.31;;;-0.75;91.18
31681;BME280;18281;51.364;9.566;2023-12-04T10:50:33;99655.22;;;-0.80;92.26
31681;BME280;18281;51.364;9.566;2023-12-04T10:52:59;99642.38;;;-0.83;92.36
31681;BME280;18281;51.364;9.566;2023-12-04T10:55:26;99642.38;;;-0.83;90.71
31681;BME280;18281;51.364;9.566;2023-12-04T10:57:51;99644.22;;;-0.91;90.39
31681;BME280;18281;51.364;9.566;2023-12-04T11:00:16;99633.84;;;-0.88;89.95
31681;BME280;18281;51.364;9.566;2023-12-04T11:02:43;99637.34;;;-0.92;90.13
31681;BME280;18281;51.364;9.566;2023-12-04T11:05:17;99625.50;;;-1.02;90.67
31681;BME280;18281;51.364;9.566;2023-12-04T11:08:08;99624.69;;;-1.06;90.32
31681;BME280;18281;51.364;9.566;2023-12-04T11:10:32;99619.56;;;-1.09;90.01
31681;BME280;18281;51.364;9.566;2023-12-04T11:13:45;99617.06;;;-1.15;89.95
31681;BME280;18281;51.364;9.566;2023-12-04T11:15:44;99615.38;;;-1.18;89.02
31681;BME280;18281;51.364;9.566;2023-12-04T11:18:13;99617.97;;;-1.18;88.83
31681;BME280;18281;51.364;9.566;2023-12-04T11:20:41;99609.44;;;-1.23;88.49
31681;BME280;18281;51.364;9.566;2023-12-04T11:23:10;99609.44;;;-1.23;88.13
31681;BME280;18281;51.364;9.566;2023-12-04T11:25:37;99600.06;;;-1.27;87.70
31681;BME280;18281;51.364;9.566;2023-12-04T11:28:03;99599.25;;;-1.29;87.17
31681;BME280;18281;51.364;9.566;2023-12-04T11:30:28;99588.09;;;-1.31;87.17
31681;BME280;18281;51.364;9.566;2023-12-04T11:32:54;99587.25;;;-1.32;86.58
31681;BME280;18281;51.364;9.566;2023-12-04T11:35:21;99580.44;;;-1.36;86.54
31681;BME280;18281;51.364;9.566;2023-12-04T11:37:50;99578.72;;;-1.35;86.48
31681;BME280;18281;51.364;9.566;2023-12-04T11:40:17;99570.94;;;-0.74;91.80
31681;BME280;18281;51.364;9.566;2023-12-04T11:42:42;99562.06;;;0.77;100.00
31681;BME280;18281;51.364;9.566;2023-12-04T11:45:08;99557.31;;;1.33;100.00
31681;BME280;18281;51.364;9.566;2023-12-04T11:47:54;99555.44;;;1.40;93.18
31681;BME280;18281;51.364;9.566;2023-12-04T11:50:19;99550.47;;;0.93;91.59
31681;BME280;18281;51.364;9.566;2023-12-04T11:52:45;99548.34;;;0.75;91.59
31681;BME280;18281;51.364;9.566;2023-12-04T11:55:10;99546.53;;;0.37;89.53
31681;BME280;18281;51.364;9.566;2023-12-04T11:57:36;99538.22;;;0.23;87.76
31681;BME280;18281;51.364;9.566;2023-12-04T12:02:33;99534.41;;;-0.01;82.87
31681;BME280;18281;51.364;9.566;2023-12-04T12:04:59;99539.63;;;-0.04;81.86
31681;BME280;18281;51.364;9.566;2023-12-04T12:07:24;99536.34;;;-0.13;81.95
31681;BME280;18281;51.364;9.566;2023-12-04T12:09:49;99531.31;;;-0.19;82.47
31681;BME280;18281;51.364;9.566;2023-12-04T12:12:15;99529.81;;;-0.31;83.63
31681;BME280;18281;51.364;9.566;2023-12-04T12:14:40;99519.63;;;-0.38;84.24
31681;BME280;18281;51.364;9.566;2023-12-04T12:17:05;99518.03;;;-0.45;85.63
31681;BME280;18281;51.364;9.566;2023-12-04T12:19:30;99513.84;;;-0.53;84.47
31681;BME280;18281;51.364;9.566;2023-12-04T12:21:56;99517.81;;;-0.33;84.73
31681;BME280;18281;51.364;9.566;2023-12-04T12:24:21;99515.25;;;-0.35;85.69
31681;BME280;18281;51.364;9.566;2023-12-04T12:26:46;99503.38;;;-0.43;85.77
31681;BME280;18281;51.364;9.566;2023-12-04T12:29:12;99491.44;;;-0.49;86.50
31681;BME280;18281;51.364;9.566;2023-12-04T12:31:37;99490.66;;;-0.53;87.16
31681;BME280;18281;51.364;9.566;2023-12-04T12:34:03;99496.75;;;-0.57;87.32
31681;BME280;18281;51.364;9.566;2023-12-04T12:36:28;99495.06;;;-0.59;87.14
31681;BME280;18281;51.364;9.566;2023-12-04T12:38:53;99487.31;;;-0.59;86.84
31681;BME280;18281;51.364;9.566;2023-12-04T12:41:19;99485.72;;;-0.65;86.09
31681;BME280;18281;51.364;9.566;2023-12-04T12:43:45;99472.06;;;-0.70;86.08
31681;BME280;18281;51.364;9.566;2023-12-04T12:46:10;99475.56;;;-0.74;84.47
31681;BME280;18281;51.364;9.566;2023-12-04T12:48:36;99470.41;;;-0.74;84.96
31681;BME280;18281;51.364;9.566;2023-12-04T12:51:04;99465.25;;;-0.74;84.80